sensor_id;sensor_type;location;lat;lon;timestamp;P1;durP1;ratioP1;P2;durP2;ratioP2
39492;SDS011;25176;51.060;3.720;2022-07-29T00:01:06;8.02;;;3.10;;
39492;SDS011;25176;51.060;3.720;2022-07-29T00:03:32;6.70;;;3.63;;
39492;SDS011;25176;51.060;3.720;2022-07-29T00:05:58;4.03;;;2.60;;
39492;SDS011;25176;51.060;3.720;2022-07-29T00:08:23;5.80;;;3.28;;
39492;SDS011;25176;51.060;3.720;2022-07-29T00:10:49;5.35;;;3.00;;
39492;SDS011;25176;51.060;3.720;2022-07-29T00:13:15;6.28;;;3.20;;
39492;SDS011;25176;51.060;3.720;2022-07-29T00:15:41;6.57;;;3.63;;
39492;SDS011;25176;51.060;3.720;2022-07-29T00:18:07;5.10;;;3.30;;
39492;SDS011;25176;51.060;3.720;2022-07-29T00:20:32;5.32;;;3.58;;
39492;SDS011;25176;51.060;3.720;2022-07-29T00:22:58;7.10;;;3.13;;
39492;SDS011;25176;51.060;3.720;2022-07-29T00:25:23;7.28;;;3.92;;
39492;SDS011;25176;51.060;3.720;2022-07-29T00:27:49;4.47;;;3.22;;
39492;SDS011;25176;51.060;3.720;2022-07-29T00:30:15;6.93;;;3.35;;
39492;SDS011;25176;51.060;3.720;2022-07-29T00:32:40;6.18;;;3.53;;
39492;SDS011;25176;51.060;3.720;2022-07-29T00:35:06;4.57;;;3.00;;
39492;SDS011;25176;51.060;3.720;2022-07-29T00:37:51;4.55;;;3.40;;
39492;SDS011;25176;51.060;3.720;2022-07-29T00:40:16;5.88;;;3.50;;
39492;SDS011;25176;51.060;3.720;2022-07-29T00:42:43;5.50;;;3.83;;
39492;SDS011;25176;51.060;3.720;2022-07-29T00:45:13;5.40;;;3.40;;
39492;SDS011;25176;51.060;3.720;2022-07-29T00:47:39;5.50;;;3.35;;
39492;SDS011;25176;51.060;3.720;2022-07-29T00:50:06;7.88;;;3.58;;
39492;SDS011;25176;51.060;3.720;2022-07-29T00:52:33;6.65;;;3.40;;
39492;SDS011;25176;51.060;3.720;2022-07-29T00:55:00;4.65;;;2.88;;
39492;SDS011;25176;51.060;3.720;2022-07-29T00:57:31;5.72;;;3.15;;
39492;SDS011;25176;51.060;3.720;2022-07-29T00:59:58;6.70;;;3.30;;
39492;SDS011;25176;51.060;3.720;2022-07-29T01:02:23;5.00;;;2.65;;
39492;SDS011;25176;51.060;3.720;2022-07-29T01:04:49;5.28;;;2.90;;
39492;SDS011;25176;51.060;3.720;2022-07-29T01:07:15;3.60;;;2.13;;
39492;SDS011;25176;51.060;3.720;2022-07-29T01:09:43;4.10;;;2.40;;
39492;SDS011;25176;51.060;3.720;2022-07-29T01:12:10;4.40;;;2.03;;
39492;SDS011;25176;51.060;3.720;2022-07-29T01:14:37;7.20;;;2.33;;
39492;SDS011;25176;51.060;3.720;2022-07-29T01:17:07;4.82;;;2.10;;
39492;SDS011;25176;51.060;3.720;2022-07-29T01:22:22;4.15;;;1.90;;
39492;SDS011;25176;51.060;3.720;2022-07-29T01:25:05;5.05;;;1.92;;
39492;SDS011;25176;51.060;3.720;2022-07-29T01:30:24;3.38;;;1.70;;
39492;SDS011;25176;51.060;3.720;2022-07-29T01:32:56;4.95;;;1.95;;
39492;SDS011;25176;51.060;3.720;2022-07-29T01:35:28;4.68;;;1.73;;
39492;SDS011;25176;51.060;3.720;2022-07-29T01:38:02;4.65;;;2.03;;
39492;SDS011;25176;51.060;3.720;2022-07-29T01:40:48;3.72;;;2.03;;
39492;SDS011;25176;51.060;3.720;2022-07-29T01:43:20;3.55;;;1.80;;
39492;SDS011;25176;51.060;3.720;2022-07-29T01:45:57;4.80;;;2.53;;
39492;SDS011;25176;51.060;3.720;2022-07-29T01:48:31;4.95;;;2.40;;
39492;SDS011;25176;51.060;3.720;2022-07-29T01:51:05;4.53;;;2.28;;
39492;SDS011;25176;51.060;3.720;2022-07-29T01:53:38;5.10;;;2.20;;
39492;SDS011;25176;51.060;3.720;2022-07-29T01:56:18;4.30;;;3.10;;
39492;SDS011;25176;51.060;3.720;2022-07-29T01:58:47;3.83;;;3.03;;
39492;SDS011;25176;51.060;3.720;2022-07-29T02:01:14;4.70;;;3.03;;
39492;SDS011;25176;51.060;3.720;2022-07-29T02:03:43;7.82;;;3.55;;
39492;SDS011;25176;51.060;3.720;2022-07-29T02:06:10;8.80;;;3.50;;
39492;SDS011;25176;51.060;3.720;2022-07-29T02:08:37;4.00;;;2.97;;
39492;SDS011;25176;51.060;3.720;2022-07-29T02:11:03;4.30;;;2.85;;
39492;SDS011;25176;51.060;3.720;2022-07-29T02:13:30;5.38;;;3.17;;
39492;SDS011;25176;51.060;3.720;2022-07-29T02:15:58;6.20;;;2.92;;
39492;SDS011;25176;51.060;3.720;2022-07-29T02:18:25;6.10;;;3.58;;
39492;SDS011;25176;51.060;3.720;2022-07-29T02:20:53;8.25;;;3.63;;
39492;SDS011;25176;51.060;3.720;2022-07-29T02:23:22;3.65;;;3.13;;
39492;SDS011;25176;51.060;3.720;2022-07-29T02:25:49;4.70;;;3.45;;
39492;SDS011;25176;51.060;3.720;2022-07-29T02:28:18;7.97;;;4.55;;
39492;SDS011;25176;51.060;3.720;2022-07-29T02:30:47;5.97;;;4.32;;
39492;SDS011;25176;51.060;3.720;2022-07-29T02:33:15;5.07;;;4.18;;
39492;SDS011;25176;51.060;3.720;2022-07-29T02:35:43;8.13;;;5.13;;
39492;SDS011;25176;51.060;3.720;2022-07-29T02:38:12;7.07;;;5.15;;
39492;SDS011;25176;51.060;3.720;2022-07-29T02:41:00;6.75;;;4.43;;
39492;SDS011;25176;51.060;3.720;2022-07-29T02:43:28;9.23;;;4.85;;
39492;SDS011;25176;51.060;3.720;2022-07-29T02:45:55;5.50;;;4.00;;
39492;SDS011;25176;51.060;3.720;2022-07-29T02:48:26;6.88;;;3.88;;
39492;SDS011;25176;51.060;3.720;2022-07-29T02:50:58;5.80;;;3.88;;
39492;SDS011;25176;51.060;3.720;2022-07-29T02:53:31;4.80;;;2.90;;
39492;SDS011;25176;51.060;3.720;2022-07-29T02:56:00;3.75;;;2.47;;
39492;SDS011;25176;51.060;3.720;2022-07-29T02:58:32;3.53;;;2.40;;
39492;SDS011;25176;51.060;3.720;2022-07-29T03:01:04;3.20;;;2.38;;
39492;SDS011;25176;51.060;3.720;2022-07-29T03:03:39;3.22;;;2.17;;
39492;SDS011;25176;51.060;3.720;2022-07-29T03:06:07;6.82;;;2.60;;
39492;SDS011;25176;51.060;3.720;2022-07-29T03:08:34;4.35;;;2.90;;
39492;SDS011;25176;51.060;3.720;2022-07-29T03:11:00;5.75;;;3.67;;
39492;SDS011;25176;51.060;3.720;2022-07-29T03:13:26;5.05;;;3.17;;
39492;SDS011;25176;51.060;3.720;2022-07-29T03:15:53;5.65;;;3.80;;
39492;SDS011;25176;51.060;3.720;2022-07-29T03:18:19;6.13;;;4.10;;
39492;SDS011;25176;51.060;3.720;2022-07-29T03:20:45;5.15;;;4.00;;
39492;SDS011;25176;51.060;3.720;2022-07-29T03:23:11;5.00;;;4.10;;
39492;SDS011;25176;51.060;3.720;2022-07-29T03:25:36;7.43;;;3.85;;
39492;SDS011;25176;51.060;3.720;2022-07-29T03:28:02;4.93;;;3.15;;
39492;SDS011;25176;51.060;3.720;2022-07-29T03:30:27;5.82;;;2.95;;
39492;SDS011;25176;51.060;3.720;2022-07-29T03:32:55;6.55;;;3.67;;
39492;SDS011;25176;51.060;3.720;2022-07-29T03:35:21;5.25;;;2.97;;
39492;SDS011;25176;51.060;3.720;2022-07-29T03:37:47;5.18;;;3.42;;
39492;SDS011;25176;51.060;3.720;2022-07-29T03:40:14;4.25;;;2.85;;
39492;SDS011;25176;51.060;3.720;2022-07-29T03:42:46;9.68;;;3.58;;
39492;SDS011;25176;51.060;3.720;2022-07-29T03:45:15;7.00;;;3.17;;
39492;SDS011;25176;51.060;3.720;2022-07-29T03:47:45;5.13;;;2.40;;
39492;SDS011;25176;51.060;3.720;2022-07-29T03:50:15;4.47;;;2.55;;
39492;SDS011;25176;51.060;3.720;2022-07-29T03:52:44;4.15;;;2.63;;
39492;SDS011;25176;51.060;3.720;2022-07-29T03:55:10;3.33;;;2.50;;
39492;SDS011;25176;51.060;3.720;2022-07-29T03:57:36;5.78;;;3.00;;
39492;SDS011;25176;51.060;3.720;2022-07-29T04:00:04;5.60;;;3.20;;
39492;SDS011;25176;51.060;3.720;2022-07-29T04:02:31;4.05;;;2.95;;
39492;SDS011;25176;51.060;3.720;2022-07-29T04:04:57;8.25;;;3.30;;
39492;SDS011;25176;51.060;3.720;2022-07-29T04:07:23;6.97;;;3.97;;
39492;SDS011;25176;51.060;3.720;2022-07-29T04:09:49;7.38;;;3.90;;
39492;SDS011;25176;51.060;3.720;2022-07-29T04:12:14;5.40;;;3.78;;
39492;SDS011;25176;51.060;3.720;2022-07-29T04:14:40;6.75;;;4.97;;
39492;SDS011;25176;51.060;3.720;2022-07-29T04:17:06;6.05;;;4.22;;
39492;SDS011;25176;51.060;3.720;2022-07-29T04:19:31;6.57;;;5.10;;
39492;SDS011;25176;51.060;3.720;2022-07-29T04:21:57;8.15;;;5.65;;
39492;SDS011;25176;51.060;3.720;2022-07-29T04:24:24;7.82;;;6.18;;
39492;SDS011;25176;51.060;3.720;2022-07-29T04:26:50;10.18;;;7.95;;
39492;SDS011;25176;51.060;3.720;2022-07-29T04:29:16;14.55;;;7.75;;
39492;SDS011;25176;51.060;3.720;2022-07-29T04:31:41;10.07;;;7.57;;
39492;SDS011;25176;51.060;3.720;2022-07-29T04:34:08;8.18;;;7.13;;
39492;SDS011;25176;51.060;3.720;2022-07-29T04:36:33;13.18;;;6.78;;
39492;SDS011;25176;51.060;3.720;2022-07-29T04:38:59;7.75;;;5.60;;
39492;SDS011;25176;51.060;3.720;2022-07-29T04:41:26;8.20;;;5.38;;
39492;SDS011;25176;51.060;3.720;2022-07-29T04:43:52;4.80;;;4.15;;
39492;SDS011;25176;51.060;3.720;2022-07-29T04:46:18;5.95;;;3.20;;
39492;SDS011;25176;51.060;3.720;2022-07-29T04:48:45;4.45;;;3.25;;
39492;SDS011;25176;51.060;3.720;2022-07-29T04:51:11;8.30;;;2.72;;
39492;SDS011;25176;51.060;3.720;2022-07-29T04:53:37;4.88;;;2.72;;
39492;SDS011;25176;51.060;3.720;2022-07-29T04:56:03;5.05;;;2.92;;
39492;SDS011;25176;51.060;3.720;2022-07-29T04:58:28;5.18;;;2.58;;
39492;SDS011;25176;51.060;3.720;2022-07-29T05:00:54;5.80;;;2.60;;
39492;SDS011;25176;51.060;3.720;2022-07-29T05:03:20;5.13;;;2.15;;
39492;SDS011;25176;51.060;3.720;2022-07-29T05:05:45;6.03;;;2.60;;
39492;SDS011;25176;51.060;3.720;2022-07-29T05:08:11;6.60;;;2.40;;
39492;SDS011;25176;51.060;3.720;2022-07-29T05:10:36;8.25;;;3.35;;
39492;SDS011;25176;51.060;3.720;2022-07-29T05:13:03;4.82;;;2.65;;
39492;SDS011;25176;51.060;3.720;2022-07-29T05:15:33;10.50;;;3.55;;
39492;SDS011;25176;51.060;3.720;2022-07-29T05:17:59;7.85;;;3.83;;
39492;SDS011;25176;51.060;3.720;2022-07-29T05:20:25;10.27;;;2.88;;
39492;SDS011;25176;51.060;3.720;2022-07-29T05:22:53;7.03;;;3.25;;
39492;SDS011;25176;51.060;3.720;2022-07-29T05:25:19;6.15;;;3.85;;
39492;SDS011;25176;51.060;3.720;2022-07-29T05:27:45;8.32;;;3.83;;
39492;SDS011;25176;51.060;3.720;2022-07-29T05:30:11;6.63;;;4.00;;
39492;SDS011;25176;51.060;3.720;2022-07-29T05:32:36;12.32;;;4.80;;
39492;SDS011;25176;51.060;3.720;2022-07-29T05:35:02;10.75;;;4.80;;
39492;SDS011;25176;51.060;3.720;2022-07-29T05:37:28;10.00;;;4.60;;
39492;SDS011;25176;51.060;3.720;2022-07-29T05:39:53;11.07;;;5.43;;
39492;SDS011;25176;51.060;3.720;2022-07-29T05:42:19;9.07;;;5.13;;
39492;SDS011;25176;51.060;3.720;2022-07-29T05:44:44;8.02;;;5.00;;
39492;SDS011;25176;51.060;3.720;2022-07-29T05:47:10;8.98;;;5.43;;
39492;SDS011;25176;51.060;3.720;2022-07-29T05:49:36;6.95;;;5.40;;
39492;SDS011;25176;51.060;3.720;2022-07-29T05:52:02;11.15;;;5.57;;
39492;SDS011;25176;51.060;3.720;2022-07-29T05:54:28;8.18;;;6.97;;
39492;SDS011;25176;51.060;3.720;2022-07-29T05:56:53;15.18;;;6.90;;
39492;SDS011;25176;51.060;3.720;2022-07-29T05:59:19;11.68;;;6.18;;
39492;SDS011;25176;51.060;3.720;2022-07-29T06:01:44;7.65;;;5.47;;
39492;SDS011;25176;51.060;3.720;2022-07-29T06:04:10;8.52;;;7.18;;
39492;SDS011;25176;51.060;3.720;2022-07-29T06:06:35;10.23;;;6.35;;
39492;SDS011;25176;51.060;3.720;2022-07-29T06:09:02;8.68;;;7.72;;
39492;SDS011;25176;51.060;3.720;2022-07-29T06:11:27;12.40;;;7.85;;
39492;SDS011;25176;51.060;3.720;2022-07-29T06:13:53;11.82;;;9.02;;
39492;SDS011;25176;51.060;3.720;2022-07-29T06:16:19;15.05;;;9.15;;
39492;SDS011;25176;51.060;3.720;2022-07-29T06:18:44;15.82;;;8.05;;
39492;SDS011;25176;51.060;3.720;2022-07-29T06:21:10;14.25;;;5.88;;
39492;SDS011;25176;51.060;3.720;2022-07-29T06:23:36;10.73;;;6.30;;
39492;SDS011;25176;51.060;3.720;2022-07-29T06:26:02;20.88;;;6.10;;
39492;SDS011;25176;51.060;3.720;2022-07-29T06:28:28;20.67;;;5.18;;
39492;SDS011;25176;51.060;3.720;2022-07-29T06:30:54;12.02;;;5.28;;
39492;SDS011;25176;51.060;3.720;2022-07-29T06:33:19;14.57;;;5.30;;
39492;SDS011;25176;51.060;3.720;2022-07-29T06:35:45;11.20;;;4.75;;
39492;SDS011;25176;51.060;3.720;2022-07-29T06:38:14;12.35;;;4.75;;
39492;SDS011;25176;51.060;3.720;2022-07-29T06:40:43;14.30;;;5.22;;
39492;SDS011;25176;51.060;3.720;2022-07-29T06:43:28;10.13;;;4.03;;
39492;SDS011;25176;51.060;3.720;2022-07-29T06:45:56;11.90;;;4.90;;
39492;SDS011;25176;51.060;3.720;2022-07-29T06:48:26;14.40;;;4.90;;
39492;SDS011;25176;51.060;3.720;2022-07-29T06:50:52;14.98;;;5.72;;
39492;SDS011;25176;51.060;3.720;2022-07-29T06:53:18;10.60;;;5.72;;
39492;SDS011;25176;51.060;3.720;2022-07-29T06:55:43;13.18;;;7.90;;
39492;SDS011;25176;51.060;3.720;2022-07-29T06:58:09;11.10;;;8.10;;
39492;SDS011;25176;51.060;3.720;2022-07-29T07:00:35;15.65;;;9.90;;
39492;SDS011;25176;51.060;3.720;2022-07-29T07:03:01;17.55;;;9.70;;
39492;SDS011;25176;51.060;3.720;2022-07-29T07:05:27;12.10;;;8.63;;
39492;SDS011;25176;51.060;3.720;2022-07-29T07:07:52;21.33;;;14.15;;
39492;SDS011;25176;51.060;3.720;2022-07-29T07:10:18;19.25;;;14.93;;
39492;SDS011;25176;51.060;3.720;2022-07-29T07:12:44;21.42;;;14.20;;
39492;SDS011;25176;51.060;3.720;2022-07-29T07:15:09;18.38;;;14.57;;
39492;SDS011;25176;51.060;3.720;2022-07-29T07:17:35;18.52;;;15.98;;
39492;SDS011;25176;51.060;3.720;2022-07-29T07:20:00;26.95;;;17.67;;
39492;SDS011;25176;51.060;3.720;2022-07-29T07:22:26;18.08;;;14.88;;
39492;SDS011;25176;51.060;3.720;2022-07-29T07:24:52;23.23;;;16.73;;
39492;SDS011;25176;51.060;3.720;2022-07-29T07:27:17;19.00;;;16.20;;
39492;SDS011;25176;51.060;3.720;2022-07-29T07:29:43;18.50;;;16.02;;
39492;SDS011;25176;51.060;3.720;2022-07-29T07:32:08;23.05;;;17.33;;
39492;SDS011;25176;51.060;3.720;2022-07-29T07:34:34;18.40;;;15.90;;
39492;SDS011;25176;51.060;3.720;2022-07-29T07:37:00;18.73;;;16.25;;
39492;SDS011;25176;51.060;3.720;2022-07-29T07:39:25;19.30;;;15.02;;
39492;SDS011;25176;51.060;3.720;2022-07-29T07:41:51;20.08;;;15.18;;
39492;SDS011;25176;51.060;3.720;2022-07-29T07:44:17;17.42;;;14.52;;
39492;SDS011;25176;51.060;3.720;2022-07-29T07:46:43;17.85;;;14.23;;
39492;SDS011;25176;51.060;3.720;2022-07-29T07:49:10;17.80;;;13.77;;
39492;SDS011;25176;51.060;3.720;2022-07-29T07:51:38;22.45;;;17.00;;
39492;SDS011;25176;51.060;3.720;2022-07-29T07:54:04;21.58;;;17.23;;
39492;SDS011;25176;51.060;3.720;2022-07-29T07:56:30;20.55;;;15.75;;
39492;SDS011;25176;51.060;3.720;2022-07-29T07:58:55;18.90;;;15.27;;
39492;SDS011;25176;51.060;3.720;2022-07-29T08:01:21;18.25;;;13.50;;
39492;SDS011;25176;51.060;3.720;2022-07-29T08:03:48;21.67;;;12.10;;
39492;SDS011;25176;51.060;3.720;2022-07-29T08:06:16;18.85;;;12.20;;
39492;SDS011;25176;51.060;3.720;2022-07-29T08:08:42;16.00;;;11.80;;
39492;SDS011;25176;51.060;3.720;2022-07-29T08:11:08;15.63;;;9.98;;
39492;SDS011;25176;51.060;3.720;2022-07-29T08:13:34;13.57;;;7.78;;
39492;SDS011;25176;51.060;3.720;2022-07-29T08:16:00;12.77;;;6.43;;
39492;SDS011;25176;51.060;3.720;2022-07-29T08:18:29;14.80;;;6.07;;
39492;SDS011;25176;51.060;3.720;2022-07-29T08:20:56;6.75;;;4.32;;
39492;SDS011;25176;51.060;3.720;2022-07-29T08:23:22;8.60;;;3.88;;
39492;SDS011;25176;51.060;3.720;2022-07-29T08:25:48;8.98;;;3.72;;
39492;SDS011;25176;51.060;3.720;2022-07-29T08:28:14;6.85;;;1.92;;
39492;SDS011;25176;51.060;3.720;2022-07-29T08:30:40;6.63;;;2.75;;
39492;SDS011;25176;51.060;3.720;2022-07-29T08:33:06;7.45;;;2.78;;
39492;SDS011;25176;51.060;3.720;2022-07-29T08:35:31;6.70;;;2.13;;
39492;SDS011;25176;51.060;3.720;2022-07-29T08:37:57;4.38;;;2.85;;
39492;SDS011;25176;51.060;3.720;2022-07-29T08:40:23;10.10;;;4.78;;
39492;SDS011;25176;51.060;3.720;2022-07-29T08:42:49;5.18;;;2.42;;
39492;SDS011;25176;51.060;3.720;2022-07-29T08:45:15;4.82;;;2.65;;
39492;SDS011;25176;51.060;3.720;2022-07-29T08:47:41;5.18;;;2.60;;
39492;SDS011;25176;51.060;3.720;2022-07-29T08:50:09;6.25;;;2.88;;
39492;SDS011;25176;51.060;3.720;2022-07-29T08:52:36;6.65;;;2.25;;
39492;SDS011;25176;51.060;3.720;2022-07-29T08:55:03;4.90;;;1.90;;
39492;SDS011;25176;51.060;3.720;2022-07-29T08:57:30;3.65;;;1.85;;
39492;SDS011;25176;51.060;3.720;2022-07-29T08:59:57;3.58;;;2.22;;
39492;SDS011;25176;51.060;3.720;2022-07-29T09:02:24;3.22;;;2.30;;
39492;SDS011;25176;51.060;3.720;2022-07-29T09:04:53;2.58;;;2.08;;
39492;SDS011;25176;51.060;3.720;2022-07-29T09:07:19;4.68;;;1.73;;
39492;SDS011;25176;51.060;3.720;2022-07-29T09:09:45;3.58;;;1.77;;
39492;SDS011;25176;51.060;3.720;2022-07-29T09:12:11;3.00;;;1.70;;
39492;SDS011;25176;51.060;3.720;2022-07-29T09:14:37;3.72;;;1.88;;
39492;SDS011;25176;51.060;3.720;2022-07-29T09:17:04;3.10;;;1.70;;
39492;SDS011;25176;51.060;3.720;2022-07-29T09:19:30;6.03;;;1.70;;
39492;SDS011;25176;51.060;3.720;2022-07-29T09:22:04;3.70;;;1.25;;
39492;SDS011;25176;51.060;3.720;2022-07-29T09:27:08;4.28;;;1.67;;
39492;SDS011;25176;51.060;3.720;2022-07-29T09:29:57;5.00;;;2.08;;
39492;SDS011;25176;51.060;3.720;2022-07-29T09:32:23;3.17;;;1.73;;
39492;SDS011;25176;51.060;3.720;2022-07-29T09:34:49;2.35;;;1.10;;
39492;SDS011;25176;51.060;3.720;2022-07-29T09:37:27;3.40;;;1.55;;
39492;SDS011;25176;51.060;3.720;2022-07-29T09:39:53;3.05;;;1.30;;
39492;SDS011;25176;51.060;3.720;2022-07-29T09:42:29;4.20;;;2.28;;
39492;SDS011;25176;51.060;3.720;2022-07-29T09:44:57;3.08;;;1.70;;
39492;SDS011;25176;51.060;3.720;2022-07-29T09:47:23;1.98;;;1.40;;
39492;SDS011;25176;51.060;3.720;2022-07-29T09:50:14;3.83;;;1.70;;
39492;SDS011;25176;51.060;3.720;2022-07-29T09:52:49;3.65;;;1.42;;
39492;SDS011;25176;51.060;3.720;2022-07-29T09:55:16;3.53;;;1.57;;
39492;SDS011;25176;51.060;3.720;2022-07-29T09:57:42;5.13;;;1.48;;
39492;SDS011;25176;51.060;3.720;2022-07-29T10:02:37;4.78;;;2.00;;
39492;SDS011;25176;51.060;3.720;2022-07-29T10:05:05;2.75;;;1.55;;
39492;SDS011;25176;51.060;3.720;2022-07-29T10:10:24;5.40;;;1.60;;
39492;SDS011;25176;51.060;3.720;2022-07-29T10:12:57;2.92;;;1.45;;
39492;SDS011;25176;51.060;3.720;2022-07-29T10:15:28;2.65;;;1.55;;
39492;SDS011;25176;51.060;3.720;2022-07-29T10:17:58;5.13;;;1.55;;
39492;SDS011;25176;51.060;3.720;2022-07-29T10:20:25;5.38;;;1.52;;
39492;SDS011;25176;51.060;3.720;2022-07-29T10:22:52;3.70;;;1.33;;
39492;SDS011;25176;51.060;3.720;2022-07-29T10:25:19;4.05;;;1.77;;
39492;SDS011;25176;51.060;3.720;2022-07-29T10:27:45;4.03;;;1.20;;
39492;SDS011;25176;51.060;3.720;2022-07-29T10:30:13;4.70;;;1.30;;
39492;SDS011;25176;51.060;3.720;2022-07-29T10:35:15;6.60;;;1.40;;
39492;SDS011;25176;51.060;3.720;2022-07-29T10:41:07;3.42;;;1.13;;
39492;SDS011;25176;51.060;3.720;2022-07-29T10:43:51;1.83;;;0.90;;
39492;SDS011;25176;51.060;3.720;2022-07-29T10:46:36;3.75;;;1.30;;
39492;SDS011;25176;51.060;3.720;2022-07-29T10:49:07;3.55;;;1.50;;
39492;SDS011;25176;51.060;3.720;2022-07-29T10:54:37;3.03;;;0.90;;
39492;SDS011;25176;51.060;3.720;2022-07-29T11:07:25;3.55;;;1.38;;
39492;SDS011;25176;51.060;3.720;2022-07-29T11:15:16;3.30;;;1.20;;
39492;SDS011;25176;51.060;3.720;2022-07-29T11:31:19;3.38;;;1.42;;
39492;SDS011;25176;51.060;3.720;2022-07-29T11:34:19;3.03;;;1.63;;
39492;SDS011;25176;51.060;3.720;2022-07-29T11:39:40;6.07;;;1.33;;
39492;SDS011;25176;51.060;3.720;2022-07-29T11:47:23;7.03;;;1.50;;
39492;SDS011;25176;51.060;3.720;2022-07-29T11:49:50;4.82;;;2.08;;
39492;SDS011;25176;51.060;3.720;2022-07-29T11:52:19;4.13;;;1.35;;
39492;SDS011;25176;51.060;3.720;2022-07-29T11:54:49;5.72;;;1.20;;
39492;SDS011;25176;51.060;3.720;2022-07-29T11:57:16;4.80;;;1.20;;
39492;SDS011;25176;51.060;3.720;2022-07-29T11:59:44;3.30;;;1.40;;
39492;SDS011;25176;51.060;3.720;2022-07-29T12:02:12;3.05;;;1.58;;
39492;SDS011;25176;51.060;3.720;2022-07-29T12:04:51;4.40;;;1.50;;
39492;SDS011;25176;51.060;3.720;2022-07-29T12:07:18;2.90;;;1.17;;
39492;SDS011;25176;51.060;3.720;2022-07-29T12:09:53;2.65;;;1.40;;
39492;SDS011;25176;51.060;3.720;2022-07-29T12:12:22;1.52;;;1.00;;
39492;SDS011;25176;51.060;3.720;2022-07-29T12:14:48;5.60;;;1.40;;
39492;SDS011;25176;51.060;3.720;2022-07-29T12:19:59;4.28;;;1.20;;
39492;SDS011;25176;51.060;3.720;2022-07-29T12:22:28;3.03;;;1.05;;
39492;SDS011;25176;51.060;3.720;2022-07-29T12:25:08;2.75;;;1.13;;
39492;SDS011;25176;51.060;3.720;2022-07-29T12:27:40;5.32;;;2.65;;
39492;SDS011;25176;51.060;3.720;2022-07-29T12:30:09;5.07;;;1.38;;
39492;SDS011;25176;51.060;3.720;2022-07-29T12:32:39;6.13;;;2.00;;
39492;SDS011;25176;51.060;3.720;2022-07-29T12:35:14;4.20;;;1.50;;
39492;SDS011;25176;51.060;3.720;2022-07-29T12:37:44;2.97;;;1.15;;
39492;SDS011;25176;51.060;3.720;2022-07-29T12:40:13;4.18;;;1.40;;
39492;SDS011;25176;51.060;3.720;2022-07-29T12:42:41;2.58;;;0.90;;
39492;SDS011;25176;51.060;3.720;2022-07-29T12:45:29;2.40;;;1.33;;
39492;SDS011;25176;51.060;3.720;2022-07-29T12:47:55;2.67;;;1.10;;
39492;SDS011;25176;51.060;3.720;2022-07-29T12:50:21;4.57;;;1.52;;
39492;SDS011;25176;51.060;3.720;2022-07-29T12:52:47;5.43;;;1.35;;
39492;SDS011;25176;51.060;3.720;2022-07-29T12:55:13;3.90;;;1.30;;
39492;SDS011;25176;51.060;3.720;2022-07-29T12:57:49;6.15;;;1.70;;
39492;SDS011;25176;51.060;3.720;2022-07-29T13:00:20;4.80;;;1.75;;
39492;SDS011;25176;51.060;3.720;2022-07-29T13:02:56;3.60;;;1.42;;
39492;SDS011;25176;51.060;3.720;2022-07-29T13:05:23;3.08;;;1.48;;
39492;SDS011;25176;51.060;3.720;2022-07-29T13:07:49;3.50;;;1.83;;
39492;SDS011;25176;51.060;3.720;2022-07-29T13:10:19;3.95;;;1.50;;
39492;SDS011;25176;51.060;3.720;2022-07-29T13:15:31;3.20;;;1.23;;
39492;SDS011;25176;51.060;3.720;2022-07-29T13:17:57;2.30;;;1.20;;
39492;SDS011;25176;51.060;3.720;2022-07-29T13:20:24;4.18;;;1.48;;
39492;SDS011;25176;51.060;3.720;2022-07-29T13:22:52;5.65;;;2.17;;
39492;SDS011;25176;51.060;3.720;2022-07-29T13:25:28;3.25;;;2.00;;
39492;SDS011;25176;51.060;3.720;2022-07-29T13:27:56;2.10;;;1.20;;
39492;SDS011;25176;51.060;3.720;2022-07-29T13:30:22;4.00;;;1.73;;
39492;SDS011;25176;51.060;3.720;2022-07-29T13:32:48;4.30;;;2.38;;
39492;SDS011;25176;51.060;3.720;2022-07-29T13:35:15;5.13;;;1.80;;
39492;SDS011;25176;51.060;3.720;2022-07-29T13:37:41;3.17;;;1.50;;
39492;SDS011;25176;51.060;3.720;2022-07-29T13:40:07;5.75;;;1.42;;
39492;SDS011;25176;51.060;3.720;2022-07-29T13:42:34;2.33;;;1.60;;
39492;SDS011;25176;51.060;3.720;2022-07-29T13:45:00;5.28;;;1.45;;
39492;SDS011;25176;51.060;3.720;2022-07-29T13:47:26;3.03;;;1.40;;
39492;SDS011;25176;51.060;3.720;2022-07-29T13:49:54;5.13;;;1.40;;
39492;SDS011;25176;51.060;3.720;2022-07-29T13:52:20;3.10;;;1.48;;
39492;SDS011;25176;51.060;3.720;2022-07-29T13:54:45;2.28;;;1.00;;
39492;SDS011;25176;51.060;3.720;2022-07-29T13:57:11;3.15;;;1.52;;
39492;SDS011;25176;51.060;3.720;2022-07-29T13:59:38;3.03;;;1.30;;
39492;SDS011;25176;51.060;3.720;2022-07-29T14:02:04;4.00;;;1.75;;
39492;SDS011;25176;51.060;3.720;2022-07-29T14:04:30;5.68;;;1.85;;
39492;SDS011;25176;51.060;3.720;2022-07-29T14:06:56;3.58;;;1.60;;
39492;SDS011;25176;51.060;3.720;2022-07-29T14:09:22;3.10;;;1.20;;
39492;SDS011;25176;51.060;3.720;2022-07-29T14:11:47;2.97;;;1.60;;
39492;SDS011;25176;51.060;3.720;2022-07-29T14:14:15;4.15;;;1.60;;
39492;SDS011;25176;51.060;3.720;2022-07-29T14:16:40;3.20;;;1.20;;
39492;SDS011;25176;51.060;3.720;2022-07-29T14:19:06;2.75;;;1.52;;
39492;SDS011;25176;51.060;3.720;2022-07-29T14:21:32;9.23;;;1.80;;
39492;SDS011;25176;51.060;3.720;2022-07-29T14:23:57;2.85;;;1.17;;
39492;SDS011;25176;51.060;3.720;2022-07-29T14:26:23;2.90;;;1.25;;
39492;SDS011;25176;51.060;3.720;2022-07-29T14:28:49;5.82;;;1.67;;
39492;SDS011;25176;51.060;3.720;2022-07-29T14:31:15;3.95;;;1.33;;
39492;SDS011;25176;51.060;3.720;2022-07-29T14:33:41;2.70;;;1.38;;
39492;SDS011;25176;51.060;3.720;2022-07-29T14:36:07;2.10;;;1.00;;
39492;SDS011;25176;51.060;3.720;2022-07-29T14:38:34;4.75;;;1.33;;
39492;SDS011;25176;51.060;3.720;2022-07-29T14:41:00;3.03;;;1.38;;
39492;SDS011;25176;51.060;3.720;2022-07-29T14:43:25;4.70;;;1.40;;
39492;SDS011;25176;51.060;3.720;2022-07-29T14:45:51;2.25;;;1.10;;
39492;SDS011;25176;51.060;3.720;2022-07-29T14:48:17;3.85;;;1.30;;
39492;SDS011;25176;51.060;3.720;2022-07-29T14:50:42;3.95;;;1.63;;
39492;SDS011;25176;51.060;3.720;2022-07-29T14:53:08;1.55;;;1.10;;
39492;SDS011;25176;51.060;3.720;2022-07-29T14:55:33;3.40;;;1.00;;
39492;SDS011;25176;51.060;3.720;2022-07-29T14:57:59;7.38;;;1.50;;
39492;SDS011;25176;51.060;3.720;2022-07-29T15:00:25;6.00;;;1.85;;
39492;SDS011;25176;51.060;3.720;2022-07-29T15:02:50;3.55;;;1.38;;
39492;SDS011;25176;51.060;3.720;2022-07-29T15:05:16;2.47;;;1.00;;
39492;SDS011;25176;51.060;3.720;2022-07-29T15:07:42;2.13;;;1.10;;
39492;SDS011;25176;51.060;3.720;2022-07-29T15:10:08;5.15;;;1.50;;
39492;SDS011;25176;51.060;3.720;2022-07-29T15:12:33;3.65;;;1.50;;
39492;SDS011;25176;51.060;3.720;2022-07-29T15:14:59;2.72;;;0.98;;
39492;SDS011;25176;51.060;3.720;2022-07-29T15:17:25;5.20;;;1.30;;
39492;SDS011;25176;51.060;3.720;2022-07-29T15:19:50;3.72;;;1.48;;
39492;SDS011;25176;51.060;3.720;2022-07-29T15:22:16;7.07;;;1.25;;
39492;SDS011;25176;51.060;3.720;2022-07-29T15:24:42;4.60;;;1.40;;
39492;SDS011;25176;51.060;3.720;2022-07-29T15:27:07;2.80;;;1.33;;
39492;SDS011;25176;51.060;3.720;2022-07-29T15:29:39;3.72;;;1.40;;
39492;SDS011;25176;51.060;3.720;2022-07-29T15:32:08;2.63;;;1.17;;
39492;SDS011;25176;51.060;3.720;2022-07-29T15:34:33;6.43;;;1.20;;
39492;SDS011;25176;51.060;3.720;2022-07-29T15:36:59;5.90;;;1.65;;
39492;SDS011;25176;51.060;3.720;2022-07-29T15:39:25;4.85;;;1.17;;
39492;SDS011;25176;51.060;3.720;2022-07-29T15:41:51;1.92;;;1.20;;
39492;SDS011;25176;51.060;3.720;2022-07-29T15:44:17;8.40;;;1.73;;
39492;SDS011;25176;51.060;3.720;2022-07-29T15:46:43;3.17;;;1.17;;
39492;SDS011;25176;51.060;3.720;2022-07-29T15:49:37;4.88;;;1.25;;
39492;SDS011;25176;51.060;3.720;2022-07-29T15:52:05;5.30;;;1.70;;